sensor_id;sensor_type;location;lat;lon;timestamp;temperature;humidity
14517;DHT22;7344;50.864;4.362;2022-07-10T00:00:10;15.00;13.70
14517;DHT22;7344;50.864;4.362;2022-07-10T00:02:37;15.10;15.00
14517;DHT22;7344;50.864;4.362;2022-07-10T00:05:04;15.10;12.80
14517;DHT22;7344;50.864;4.362;2022-07-10T00:07:30;15.10;13.10
14517;DHT22;7344;50.864;4.362;2022-07-10T00:09:56;15.10;12.10
14517;DHT22;7344;50.864;4.362;2022-07-10T00:12:22;15.10;12.30
14517;DHT22;7344;50.864;4.362;2022-07-10T00:14:47;15.10;10.80
14517;DHT22;7344;50.864;4.362;2022-07-10T00:17:13;15.20;10.20
14517;DHT22;7344;50.864;4.362;2022-07-10T00:19:39;15.10;12.60
14517;DHT22;7344;50.864;4.362;2022-07-10T00:22:04;15.10;10.40
14517;DHT22;7344;50.864;4.362;2022-07-10T00:24:30;15.10;11.10
14517;DHT22;7344;50.864;4.362;2022-07-10T00:26:56;15.10;12.10
14517;DHT22;7344;50.864;4.362;2022-07-10T00:29:22;15.10;13.50
14517;DHT22;7344;50.864;4.362;2022-07-10T00:31:48;15.00;14.50
14517;DHT22;7344;50.864;4.362;2022-07-10T00:34:13;15.00;16.30
14517;DHT22;7344;50.864;4.362;2022-07-10T00:36:39;15.00;15.50
14517;DHT22;7344;50.864;4.362;2022-07-10T00:39:04;15.10;14.40
14517;DHT22;7344;50.864;4.362;2022-07-10T00:41:30;15.10;11.40
14517;DHT22;7344;50.864;4.362;2022-07-10T00:43:57;15.00;13.90
14517;DHT22;7344;50.864;4.362;2022-07-10T00:46:24;15.00;16.60
14517;DHT22;7344;50.864;4.362;2022-07-10T00:48:50;15.00;15.30
14517;DHT22;7344;50.864;4.362;2022-07-10T00:51:18;15.00;13.50
14517;DHT22;7344;50.864;4.362;2022-07-10T00:53:45;15.00;13.80
14517;DHT22;7344;50.864;4.362;2022-07-10T00:56:11;15.00;11.20
14517;DHT22;7344;50.864;4.362;2022-07-10T00:58:39;14.90;14.30
14517;DHT22;7344;50.864;4.362;2022-07-10T01:01:06;14.90;16.40
14517;DHT22;7344;50.864;4.362;2022-07-10T01:03:31;14.70;19.40
14517;DHT22;7344;50.864;4.362;2022-07-10T01:05:57;14.80;21.70
14517;DHT22;7344;50.864;4.362;2022-07-10T01:08:24;14.80;20.10
14517;DHT22;7344;50.864;4.362;2022-07-10T01:10:49;14.70;23.10
14517;DHT22;7344;50.864;4.362;2022-07-10T01:13:15;14.60;25.60
14517;DHT22;7344;50.864;4.362;2022-07-10T01:15:41;14.60;26.60
14517;DHT22;7344;50.864;4.362;2022-07-10T01:18:07;14.50;29.70
14517;DHT22;7344;50.864;4.362;2022-07-10T01:20:33;14.50;35.60
14517;DHT22;7344;50.864;4.362;2022-07-10T01:22:59;14.40;34.00
14517;DHT22;7344;50.864;4.362;2022-07-10T01:25:25;14.40;36.40
14517;DHT22;7344;50.864;4.362;2022-07-10T01:27:51;14.40;35.50
14517;DHT22;7344;50.864;4.362;2022-07-10T01:30:17;14.40;34.10
14517;DHT22;7344;50.864;4.362;2022-07-10T01:32:45;14.50;33.90
14517;DHT22;7344;50.864;4.362;2022-07-10T01:35:11;14.50;31.70
14517;DHT22;7344;50.864;4.362;2022-07-10T01:37:37;14.60;30.50
14517;DHT22;7344;50.864;4.362;2022-07-10T01:40:03;14.60;28.80
14517;DHT22;7344;50.864;4.362;2022-07-10T01:42:29;14.60;26.40
14517;DHT22;7344;50.864;4.362;2022-07-10T01:44:55;14.60;27.90
14517;DHT22;7344;50.864;4.362;2022-07-10T01:47:21;14.40;32.00
14517;DHT22;7344;50.864;4.362;2022-07-10T01:49:52;14.40;35.60
14517;DHT22;7344;50.864;4.362;2022-07-10T01:52:19;14.30;40.00
14517;DHT22;7344;50.864;4.362;2022-07-10T01:54:45;14.20;41.90
14517;DHT22;7344;50.864;4.362;2022-07-10T01:57:11;14.20;43.00
14517;DHT22;7344;50.864;4.362;2022-07-10T01:59:37;14.20;44.70
14517;DHT22;7344;50.864;4.362;2022-07-10T02:02:02;14.10;46.30
14517;DHT22;7344;50.864;4.362;2022-07-10T02:04:28;14.10;48.40
14517;DHT22;7344;50.864;4.362;2022-07-10T02:07:15;14.10;51.40
14517;DHT22;7344;50.864;4.362;2022-07-10T02:09:41;14.10;52.60
14517;DHT22;7344;50.864;4.362;2022-07-10T02:12:14;14.00;54.50
14517;DHT22;7344;50.864;4.362;2022-07-10T02:14:41;14.00;55.50
14517;DHT22;7344;50.864;4.362;2022-07-10T02:17:07;14.00;55.10
14517;DHT22;7344;50.864;4.362;2022-07-10T02:19:34;14.00;57.70
14517;DHT22;7344;50.864;4.362;2022-07-10T02:22:00;14.00;56.80
14517;DHT22;7344;50.864;4.362;2022-07-10T02:24:26;14.00;55.30
14517;DHT22;7344;50.864;4.362;2022-07-10T02:26:52;14.00;57.70
14517;DHT22;7344;50.864;4.362;2022-07-10T02:29:18;13.90;59.60
14517;DHT22;7344;50.864;4.362;2022-07-10T02:31:44;13.90;60.30
14517;DHT22;7344;50.864;4.362;2022-07-10T02:34:13;13.90;59.80
14517;DHT22;7344;50.864;4.362;2022-07-10T02:36:39;14.00;58.70
14517;DHT22;7344;50.864;4.362;2022-07-10T02:39:06;14.00;55.80
14517;DHT22;7344;50.864;4.362;2022-07-10T02:41:32;14.00;53.60
14517;DHT22;7344;50.864;4.362;2022-07-10T02:43:58;14.00;52.50
14517;DHT22;7344;50.864;4.362;2022-07-10T02:46:24;14.10;49.60
14517;DHT22;7344;50.864;4.362;2022-07-10T02:48:50;14.00;46.10
14517;DHT22;7344;50.864;4.362;2022-07-10T02:51:16;14.00;47.30
14517;DHT22;7344;50.864;4.362;2022-07-10T02:53:42;14.00;50.20
14517;DHT22;7344;50.864;4.362;2022-07-10T02:56:08;14.00;51.10
14517;DHT22;7344;50.864;4.362;2022-07-10T02:58:34;14.10;48.60
14517;DHT22;7344;50.864;4.362;2022-07-10T03:01:00;14.10;48.60
14517;DHT22;7344;50.864;4.362;2022-07-10T03:03:26;14.10;48.00
14517;DHT22;7344;50.864;4.362;2022-07-10T03:05:52;14.10;43.80
14517;DHT22;7344;50.864;4.362;2022-07-10T03:08:18;14.00;43.50
14517;DHT22;7344;50.864;4.362;2022-07-10T03:10:43;13.90;48.60
14517;DHT22;7344;50.864;4.362;2022-07-10T03:13:09;13.90;51.30
14517;DHT22;7344;50.864;4.362;2022-07-10T03:15:35;13.90;51.50
14517;DHT22;7344;50.864;4.362;2022-07-10T03:18:01;13.80;54.90
14517;DHT22;7344;50.864;4.362;2022-07-10T03:20:26;13.90;55.10
14517;DHT22;7344;50.864;4.362;2022-07-10T03:22:52;13.80;54.30
14517;DHT22;7344;50.864;4.362;2022-07-10T03:25:17;13.90;55.60
14517;DHT22;7344;50.864;4.362;2022-07-10T03:27:43;14.00;50.80
14517;DHT22;7344;50.864;4.362;2022-07-10T03:30:09;14.00;49.10
14517;DHT22;7344;50.864;4.362;2022-07-10T03:32:35;14.00;47.60
14517;DHT22;7344;50.864;4.362;2022-07-10T03:35:01;14.00;49.00
14517;DHT22;7344;50.864;4.362;2022-07-10T03:37:27;14.00;52.10
14517;DHT22;7344;50.864;4.362;2022-07-10T03:39:52;14.10;46.90
14517;DHT22;7344;50.864;4.362;2022-07-10T03:42:18;14.20;43.20
14517;DHT22;7344;50.864;4.362;2022-07-10T03:44:44;14.20;42.80
14517;DHT22;7344;50.864;4.362;2022-07-10T03:47:10;14.10;45.80
14517;DHT22;7344;50.864;4.362;2022-07-10T03:49:36;14.10;46.90
14517;DHT22;7344;50.864;4.362;2022-07-10T03:52:02;14.10;49.70
14517;DHT22;7344;50.864;4.362;2022-07-10T03:54:29;14.20;47.60
14517;DHT22;7344;50.864;4.362;2022-07-10T03:56:55;14.40;50.30
14517;DHT22;7344;50.864;4.362;2022-07-10T03:59:39;14.80;47.50
14517;DHT22;7344;50.864;4.362;2022-07-10T04:02:05;15.30;36.80
14517;DHT22;7344;50.864;4.362;2022-07-10T04:04:30;15.80;18.40
14517;DHT22;7344;50.864;4.362;2022-07-10T04:06:56;16.50;1.00
14517;DHT22;7344;50.864;4.362;2022-07-10T04:09:22;17.10;1.00
14517;DHT22;7344;50.864;4.362;2022-07-10T04:11:47;17.90;1.00
14517;DHT22;7344;50.864;4.362;2022-07-10T04:14:13;18.60;1.00
14517;DHT22;7344;50.864;4.362;2022-07-10T04:16:39;19.20;1.00
14517;DHT22;7344;50.864;4.362;2022-07-10T04:19:04;20.00;99.90
14517;DHT22;7344;50.864;4.362;2022-07-10T04:21:30;20.80;1.00
14517;DHT22;7344;50.864;4.362;2022-07-10T04:23:55;21.10;1.00
14517;DHT22;7344;50.864;4.362;2022-07-10T04:26:21;21.90;99.90
14517;DHT22;7344;50.864;4.362;2022-07-10T04:28:46;22.60;99.90
14517;DHT22;7344;50.864;4.362;2022-07-10T04:31:12;23.30;99.90
14517;DHT22;7344;50.864;4.362;2022-07-10T04:33:38;23.80;25.10
14517;DHT22;7344;50.864;4.362;2022-07-10T04:36:03;24.40;1.00
14517;DHT22;7344;50.864;4.362;2022-07-10T04:38:29;24.90;1.00
14517;DHT22;7344;50.864;4.362;2022-07-10T04:40:57;25.20;1.00
14517;DHT22;7344;50.864;4.362;2022-07-10T04:43:22;25.40;99.90
14517;DHT22;7344;50.864;4.362;2022-07-10T04:45:48;25.90;99.90
14517;DHT22;7344;50.864;4.362;2022-07-10T04:48:13;26.40;99.90
14517;DHT22;7344;50.864;4.362;2022-07-10T04:50:39;27.10;99.90
14517;DHT22;7344;50.864;4.362;2022-07-10T04:53:04;27.50;99.90
14517;DHT22;7344;50.864;4.362;2022-07-10T04:55:30;27.80;99.90
14517;DHT22;7344;50.864;4.362;2022-07-10T04:57:56;28.40;99.90
14517;DHT22;7344;50.864;4.362;2022-07-10T05:00:21;28.60;99.90
14517;DHT22;7344;50.864;4.362;2022-07-10T05:02:47;29.10;99.90
14517;DHT22;7344;50.864;4.362;2022-07-10T05:05:13;29.20;99.90
14517;DHT22;7344;50.864;4.362;2022-07-10T05:07:38;29.20;99.90
14517;DHT22;7344;50.864;4.362;2022-07-10T05:10:04;29.50;99.90
14517;DHT22;7344;50.864;4.362;2022-07-10T05:12:30;29.70;99.90
14517;DHT22;7344;50.864;4.362;2022-07-10T05:14:56;30.40;99.90
14517;DHT22;7344;50.864;4.362;2022-07-10T05:17:22;30.70;99.90
14517;DHT22;7344;50.864;4.362;2022-07-10T05:19:48;31.00;99.90
14517;DHT22;7344;50.864;4.362;2022-07-10T05:22:14;31.20;99.90
14517;DHT22;7344;50.864;4.362;2022-07-10T05:24:39;31.20;99.90
14517;DHT22;7344;50.864;4.362;2022-07-10T05:27:05;31.40;99.90
14517;DHT22;7344;50.864;4.362;2022-07-10T05:29:31;31.50;99.90
14517;DHT22;7344;50.864;4.362;2022-07-10T05:31:57;31.90;98.50
14517;DHT22;7344;50.864;4.362;2022-07-10T05:34:22;31.00;95.70
14517;DHT22;7344;50.864;4.362;2022-07-10T05:36:48;31.00;97.90
14517;DHT22;7344;50.864;4.362;2022-07-10T05:39:13;31.20;96.50
14517;DHT22;7344;50.864;4.362;2022-07-10T05:41:39;31.30;95.70
14517;DHT22;7344;50.864;4.362;2022-07-10T05:44:04;31.30;93.80
14517;DHT22;7344;50.864;4.362;2022-07-10T05:46:30;31.90;91.40
14517;DHT22;7344;50.864;4.362;2022-07-10T05:48:56;32.40;83.80
14517;DHT22;7344;50.864;4.362;2022-07-10T05:51:21;32.00;80.60
14517;DHT22;7344;50.864;4.362;2022-07-10T05:53:47;32.00;78.40
14517;DHT22;7344;50.864;4.362;2022-07-10T05:56:13;32.60;78.00
14517;DHT22;7344;50.864;4.362;2022-07-10T05:58:38;31.30;72.30
14517;DHT22;7344;50.864;4.362;2022-07-10T06:01:04;30.00;80.40
14517;DHT22;7344;50.864;4.362;2022-07-10T06:03:29;27.80;96.90
14517;DHT22;7344;50.864;4.362;2022-07-10T06:05:55;26.20;99.90
14517;DHT22;7344;50.864;4.362;2022-07-10T06:08:21;24.30;99.90
14517;DHT22;7344;50.864;4.362;2022-07-10T06:10:46;23.30;1.00
14517;DHT22;7344;50.864;4.362;2022-07-10T06:13:12;22.60;99.90
14517;DHT22;7344;50.864;4.362;2022-07-10T06:15:38;22.10;99.90
14517;DHT22;7344;50.864;4.362;2022-07-10T06:18:04;21.90;1.00
14517;DHT22;7344;50.864;4.362;2022-07-10T06:20:30;21.70;1.00
14517;DHT22;7344;50.864;4.362;2022-07-10T06:22:57;21.30;1.00
14517;DHT22;7344;50.864;4.362;2022-07-10T06:25:22;21.40;1.00
14517;DHT22;7344;50.864;4.362;2022-07-10T06:27:48;21.60;99.90
14517;DHT22;7344;50.864;4.362;2022-07-10T06:30:14;21.60;99.90
14517;DHT22;7344;50.864;4.362;2022-07-10T06:32:40;21.40;23.10
14517;DHT22;7344;50.864;4.362;2022-07-10T06:35:06;21.30;1.00
14517;DHT22;7344;50.864;4.362;2022-07-10T06:37:33;21.20;1.00
14517;DHT22;7344;50.864;4.362;2022-07-10T06:39:58;21.20;1.00
14517;DHT22;7344;50.864;4.362;2022-07-10T06:42:24;21.10;99.90
14517;DHT22;7344;50.864;4.362;2022-07-10T06:44:50;20.90;99.90
14517;DHT22;7344;50.864;4.362;2022-07-10T06:47:18;20.90;53.90
14517;DHT22;7344;50.864;4.362;2022-07-10T06:50:06;20.60;1.00
14517;DHT22;7344;50.864;4.362;2022-07-10T06:52:33;20.40;1.00
14517;DHT22;7344;50.864;4.362;2022-07-10T06:55:00;20.60;99.90
14517;DHT22;7344;50.864;4.362;2022-07-10T06:57:25;20.80;99.90
14517;DHT22;7344;50.864;4.362;2022-07-10T06:59:51;20.50;1.00
14517;DHT22;7344;50.864;4.362;2022-07-10T07:02:18;20.60;1.00
14517;DHT22;7344;50.864;4.362;2022-07-10T07:04:44;20.50;1.00
14517;DHT22;7344;50.864;4.362;2022-07-10T07:07:13;20.80;1.00
14517;DHT22;7344;50.864;4.362;2022-07-10T07:09:39;20.70;1.00
14517;DHT22;7344;50.864;4.362;2022-07-10T07:12:05;21.00;1.00
14517;DHT22;7344;50.864;4.362;2022-07-10T07:14:32;20.80;1.00
14517;DHT22;7344;50.864;4.362;2022-07-10T07:16:57;20.90;1.00
14517;DHT22;7344;50.864;4.362;2022-07-10T07:19:26;21.10;1.00
14517;DHT22;7344;50.864;4.362;2022-07-10T07:22:11;21.20;99.90
14517;DHT22;7344;50.864;4.362;2022-07-10T07:24:56;21.30;1.00
14517;DHT22;7344;50.864;4.362;2022-07-10T07:27:21;21.40;1.00
14517;DHT22;7344;50.864;4.362;2022-07-10T07:29:47;21.80;99.90
14517;DHT22;7344;50.864;4.362;2022-07-10T07:32:12;21.80;99.90
14517;DHT22;7344;50.864;4.362;2022-07-10T07:34:38;22.10;1.00
14517;DHT22;7344;50.864;4.362;2022-07-10T07:37:04;22.50;1.00
14517;DHT22;7344;50.864;4.362;2022-07-10T07:39:29;22.70;1.00
14517;DHT22;7344;50.864;4.362;2022-07-10T07:41:55;22.80;1.00
14517;DHT22;7344;50.864;4.362;2022-07-10T07:44:20;23.10;99.90
14517;DHT22;7344;50.864;4.362;2022-07-10T07:46:46;23.80;99.90
14517;DHT22;7344;50.864;4.362;2022-07-10T07:49:11;24.20;56.30
14517;DHT22;7344;50.864;4.362;2022-07-10T07:51:37;24.50;1.00
14517;DHT22;7344;50.864;4.362;2022-07-10T07:54:03;25.20;1.00
14517;DHT22;7344;50.864;4.362;2022-07-10T07:56:28;25.80;1.00
14517;DHT22;7344;50.864;4.362;2022-07-10T07:58:54;25.20;1.00
14517;DHT22;7344;50.864;4.362;2022-07-10T08:01:19;24.20;1.00
14517;DHT22;7344;50.864;4.362;2022-07-10T08:03:45;23.60;99.90
14517;DHT22;7344;50.864;4.362;2022-07-10T08:06:11;23.70;99.90
14517;DHT22;7344;50.864;4.362;2022-07-10T08:08:37;23.80;99.90
14517;DHT22;7344;50.864;4.362;2022-07-10T08:11:02;24.50;1.00
14517;DHT22;7344;50.864;4.362;2022-07-10T08:13:28;24.70;1.00
14517;DHT22;7344;50.864;4.362;2022-07-10T08:15:54;25.50;1.00
14517;DHT22;7344;50.864;4.362;2022-07-10T08:18:20;26.10;99.90
14517;DHT22;7344;50.864;4.362;2022-07-10T08:20:45;26.60;99.90
14517;DHT22;7344;50.864;4.362;2022-07-10T08:23:11;27.80;99.90
14517;DHT22;7344;50.864;4.362;2022-07-10T08:25:36;27.90;99.90
14517;DHT22;7344;50.864;4.362;2022-07-10T08:28:03;27.80;99.90
14517;DHT22;7344;50.864;4.362;2022-07-10T08:30:29;28.20;99.90
14517;DHT22;7344;50.864;4.362;2022-07-10T08:32:55;28.80;99.90
14517;DHT22;7344;50.864;4.362;2022-07-10T08:35:21;28.60;99.90
14517;DHT22;7344;50.864;4.362;2022-07-10T08:37:47;28.90;99.90
14517;DHT22;7344;50.864;4.362;2022-07-10T08:40:14;28.80;99.90
14517;DHT22;7344;50.864;4.362;2022-07-10T08:42:41;28.70;99.90
14517;DHT22;7344;50.864;4.362;2022-07-10T08:45:07;28.60;99.90
14517;DHT22;7344;50.864;4.362;2022-07-10T08:47:37;28.90;99.90
14517;DHT22;7344;50.864;4.362;2022-07-10T08:50:04;28.80;99.90
14517;DHT22;7344;50.864;4.362;2022-07-10T08:52:52;29.10;99.90
14517;DHT22;7344;50.864;4.362;2022-07-10T08:55:23;29.50;99.90
14517;DHT22;7344;50.864;4.362;2022-07-10T08:57:50;29.50;99.90
14517;DHT22;7344;50.864;4.362;2022-07-10T09:00:16;29.10;99.90
14517;DHT22;7344;50.864;4.362;2022-07-10T09:02:42;26.80;99.90
14517;DHT22;7344;50.864;4.362;2022-07-10T09:05:08;25.90;99.90
14517;DHT22;7344;50.864;4.362;2022-07-10T09:07:37;25.50;99.90
14517;DHT22;7344;50.864;4.362;2022-07-10T09:10:08;25.60;99.90
14517;DHT22;7344;50.864;4.362;2022-07-10T09:12:54;25.60;99.90
14517;DHT22;7344;50.864;4.362;2022-07-10T09:15:22;26.00;99.90
14517;DHT22;7344;50.864;4.362;2022-07-10T09:17:56;25.70;99.90
14517;DHT22;7344;50.864;4.362;2022-07-10T09:22:55;24.40;1.00
14517;DHT22;7344;50.864;4.362;2022-07-10T09:25:21;24.50;1.00
14517;DHT22;7344;50.864;4.362;2022-07-10T09:27:53;24.70;1.00
14517;DHT22;7344;50.864;4.362;2022-07-10T09:30:39;25.30;1.00
14517;DHT22;7344;50.864;4.362;2022-07-10T09:41:19;26.30;99.90
14517;DHT22;7344;50.864;4.362;2022-07-10T09:43:48;26.10;99.90
14517;DHT22;7344;50.864;4.362;2022-07-10T09:46:15;26.20;99.90
14517;DHT22;7344;50.864;4.362;2022-07-10T09:48:40;26.50;99.90
14517;DHT22;7344;50.864;4.362;2022-07-10T09:51:10;26.50;99.90
14517;DHT22;7344;50.864;4.362;2022-07-10T09:53:43;25.70;99.90
14517;DHT22;7344;50.864;4.362;2022-07-10T09:56:10;26.00;99.90
14517;DHT22;7344;50.864;4.362;2022-07-10T09:58:37;26.50;99.90
14517;DHT22;7344;50.864;4.362;2022-07-10T10:01:05;26.90;99.90
14517;DHT22;7344;50.864;4.362;2022-07-10T10:03:35;26.90;99.90
14517;DHT22;7344;50.864;4.362;2022-07-10T10:06:13;27.00;99.90
14517;DHT22;7344;50.864;4.362;2022-07-10T10:11:21;26.80;99.90
14517;DHT22;7344;50.864;4.362;2022-07-10T10:13:47;26.70;99.90
14517;DHT22;7344;50.864;4.362;2022-07-10T10:16:14;26.50;99.90
14517;DHT22;7344;50.864;4.362;2022-07-10T10:18:40;26.50;99.90
14517;DHT22;7344;50.864;4.362;2022-07-10T10:21:28;26.60;99.90
14517;DHT22;7344;50.864;4.362;2022-07-10T10:23:54;26.50;99.90
14517;DHT22;7344;50.864;4.362;2022-07-10T10:26:21;26.50;99.90
14517;DHT22;7344;50.864;4.362;2022-07-10T10:28:48;26.50;99.90
14517;DHT22;7344;50.864;4.362;2022-07-10T10:31:15;26.50;99.90
14517;DHT22;7344;50.864;4.362;2022-07-10T10:33:42;26.50;99.90
14517;DHT22;7344;50.864;4.362;2022-07-10T10:36:09;27.10;99.90
14517;DHT22;7344;50.864;4.362;2022-07-10T10:49:16;24.90;1.00
14517;DHT22;7344;50.864;4.362;2022-07-10T10:54:31;25.80;99.90
14517;DHT22;7344;50.864;4.362;2022-07-10T10:57:13;26.20;99.90
14517;DHT22;7344;50.864;4.362;2022-07-10T10:59:49;26.60;99.90
14517;DHT22;7344;50.864;4.362;2022-07-10T11:02:29;26.90;99.90
14517;DHT22;7344;50.864;4.362;2022-07-10T11:10:30;27.70;99.90
14517;DHT22;7344;50.864;4.362;2022-07-10T11:13:00;27.80;99.90
14517;DHT22;7344;50.864;4.362;2022-07-10T11:15:27;28.10;99.90
14517;DHT22;7344;50.864;4.362;2022-07-10T11:17:56;28.60;99.90
14517;DHT22;7344;50.864;4.362;2022-07-10T11:20:22;28.50;99.90
14517;DHT22;7344;50.864;4.362;2022-07-10T11:25:54;29.10;99.90
14517;DHT22;7344;50.864;4.362;2022-07-10T11:31:09;28.40;99.90
14517;DHT22;7344;50.864;4.362;2022-07-10T11:33:41;28.20;99.90
14517;DHT22;7344;50.864;4.362;2022-07-10T11:36:13;27.10;99.90
14517;DHT22;7344;50.864;4.362;2022-07-10T11:38:39;27.70;99.90
14517;DHT22;7344;50.864;4.362;2022-07-10T11:41:15;27.90;99.90
14517;DHT22;7344;50.864;4.362;2022-07-10T11:43:59;27.50;99.90
14517;DHT22;7344;50.864;4.362;2022-07-10T11:48:55;26.20;99.90
14517;DHT22;7344;50.864;4.362;2022-07-10T11:51:29;26.60;99.90
14517;DHT22;7344;50.864;4.362;2022-07-10T11:56:30;27.60;99.90
14517;DHT22;7344;50.864;4.362;2022-07-10T11:59:00;27.60;99.90
14517;DHT22;7344;50.864;4.362;2022-07-10T12:01:30;28.30;99.90
14517;DHT22;7344;50.864;4.362;2022-07-10T12:04:03;28.40;99.90
14517;DHT22;7344;50.864;4.362;2022-07-10T12:06:30;28.90;99.90
14517;DHT22;7344;50.864;4.362;2022-07-10T12:09:04;28.80;99.90
14517;DHT22;7344;50.864;4.362;2022-07-10T12:11:31;28.70;99.90
14517;DHT22;7344;50.864;4.362;2022-07-10T12:16:40;29.10;99.90
14517;DHT22;7344;50.864;4.362;2022-07-10T12:19:08;28.90;99.90
14517;DHT22;7344;50.864;4.362;2022-07-10T12:21:34;26.90;99.90
14517;DHT22;7344;50.864;4.362;2022-07-10T12:24:00;26.30;99.90
14517;DHT22;7344;50.864;4.362;2022-07-10T12:26:37;26.20;99.90
14517;DHT22;7344;50.864;4.362;2022-07-10T12:29:03;26.20;99.90
14517;DHT22;7344;50.864;4.362;2022-07-10T12:31:31;26.10;99.90
14517;DHT22;7344;50.864;4.362;2022-07-10T12:33:59;26.40;99.90
14517;DHT22;7344;50.864;4.362;2022-07-10T12:36:51;26.80;99.90
14517;DHT22;7344;50.864;4.362;2022-07-10T12:39:24;25.60;99.90
14517;DHT22;7344;50.864;4.362;2022-07-10T12:44:46;25.60;1.00
14517;DHT22;7344;50.864;4.362;2022-07-10T12:47:18;26.10;99.90
14517;DHT22;7344;50.864;4.362;2022-07-10T12:49:52;26.60;99.90
14517;DHT22;7344;50.864;4.362;2022-07-10T12:52:26;27.00;99.90
14517;DHT22;7344;50.864;4.362;2022-07-10T12:55:12;26.10;99.90
14517;DHT22;7344;50.864;4.362;2022-07-10T12:57:57;25.90;99.90
14517;DHT22;7344;50.864;4.362;2022-07-10T13:02:57;25.10;1.00
14517;DHT22;7344;50.864;4.362;2022-07-10T13:05:35;25.00;1.00
14517;DHT22;7344;50.864;4.362;2022-07-10T13:10:33;25.20;1.00
14517;DHT22;7344;50.864;4.362;2022-07-10T13:12:59;24.50;1.00
14517;DHT22;7344;50.864;4.362;2022-07-10T13:15:25;23.90;99.90
14517;DHT22;7344;50.864;4.362;2022-07-10T13:17:51;24.30;99.90
14517;DHT22;7344;50.864;4.362;2022-07-10T13:20:16;24.40;1.00
14517;DHT22;7344;50.864;4.362;2022-07-10T13:22:42;24.50;1.00
14517;DHT22;7344;50.864;4.362;2022-07-10T13:25:08;24.30;1.00
14517;DHT22;7344;50.864;4.362;2022-07-10T13:27:34;24.60;15.90
14517;DHT22;7344;50.864;4.362;2022-07-10T13:30:05;24.90;1.00
14517;DHT22;7344;50.864;4.362;2022-07-10T13:32:31;24.90;1.00
14517;DHT22;7344;50.864;4.362;2022-07-10T13:34:57;24.10;1.00
14517;DHT22;7344;50.864;4.362;2022-07-10T13:37:23;23.60;1.00
14517;DHT22;7344;50.864;4.362;2022-07-10T13:39:48;23.70;1.00
14517;DHT22;7344;50.864;4.362;2022-07-10T13:42:14;24.10;1.00
14517;DHT22;7344;50.864;4.362;2022-07-10T13:44:40;24.90;1.00
14517;DHT22;7344;50.864;4.362;2022-07-10T13:47:05;25.30;1.00
14517;DHT22;7344;50.864;4.362;2022-07-10T13:49:31;25.60;1.00
14517;DHT22;7344;50.864;4.362;2022-07-10T13:51:57;25.90;1.00
14517;DHT22;7344;50.864;4.362;2022-07-10T13:54:23;26.20;99.90
14517;DHT22;7344;50.864;4.362;2022-07-10T13:56:48;26.60;99.90
14517;DHT22;7344;50.864;4.362;2022-07-10T13:59:14;26.80;99.90
14517;DHT22;7344;50.864;4.362;2022-07-10T14:01:40;26.60;99.90
14517;DHT22;7344;50.864;4.362;2022-07-10T14:04:05;25.60;1.00
14517;DHT22;7344;50.864;4.362;2022-07-10T14:06:32;25.00;1.00
14517;DHT22;7344;50.864;4.362;2022-07-10T14:08:58;24.90;1.00
14517;DHT22;7344;50.864;4.362;2022-07-10T14:11:23;25.40;1.00
14517;DHT22;7344;50.864;4.362;2022-07-10T14:13:49;25.90;1.00
14517;DHT22;7344;50.864;4.362;2022-07-10T14:16:14;26.10;1.00
14517;DHT22;7344;50.864;4.362;2022-07-10T14:18:40;26.30;99.90
14517;DHT22;7344;50.864;4.362;2022-07-10T14:21:11;26.20;99.90
14517;DHT22;7344;50.864;4.362;2022-07-10T14:23:41;25.80;99.90
14517;DHT22;7344;50.864;4.362;2022-07-10T14:26:07;25.30;1.00
14517;DHT22;7344;50.864;4.362;2022-07-10T14:28:33;25.70;1.00
14517;DHT22;7344;50.864;4.362;2022-07-10T14:31:01;26.10;99.90
14517;DHT22;7344;50.864;4.362;2022-07-10T14:33:30;26.40;99.90
14517;DHT22;7344;50.864;4.362;2022-07-10T14:35:56;26.50;99.90
14517;DHT22;7344;50.864;4.362;2022-07-10T14:38:21;26.40;99.90
14517;DHT22;7344;50.864;4.362;2022-07-10T14:40:47;26.80;99.90
14517;DHT22;7344;50.864;4.362;2022-07-10T14:43:13;27.00;99.90
14517;DHT22;7344;50.864;4.362;2022-07-10T14:45:38;26.90;99.90
14517;DHT22;7344;50.864;4.362;2022-07-10T14:48:04;27.00;99.90
14517;DHT22;7344;50.864;4.362;2022-07-10T14:50:30;27.20;99.90
14517;DHT22;7344;50.864;4.362;2022-07-10T14:52:56;27.40;99.90
14517;DHT22;7344;50.864;4.362;2022-07-10T14:55:21;27.30;99.90
14517;DHT22;7344;50.864;4.362;2022-07-10T14:57:47;27.10;99.90
14517;DHT22;7344;50.864;4.362;2022-07-10T15:00:14;27.00;99.90
14517;DHT22;7344;50.864;4.362;2022-07-10T15:02:40;26.90;99.90
14517;DHT22;7344;50.864;4.362;2022-07-10T15:05:06;26.90;99.90
14517;DHT22;7344;50.864;4.362;2022-07-10T15:07:31;26.50;99.90
14517;DHT22;7344;50.864;4.362;2022-07-10T15:09:57;26.10;99.90
14517;DHT22;7344;50.864;4.362;2022-07-10T15:12:23;26.10;99.90
14517;DHT22;7344;50.864;4.362;2022-07-10T15:14:48;26.00;99.90
14517;DHT22;7344;50.864;4.362;2022-07-10T15:17:14;25.70;99.90
14517;DHT22;7344;50.864;4.362;2022-07-10T15:19:39;25.40;99.90
14517;DHT22;7344;50.864;4.362;2022-07-10T15:22:05;25.60;99.90
14517;DHT22;7344;50.864;4.362;2022-07-10T15:24:30;25.50;99.90
14517;DHT22;7344;50.864;4.362;2022-07-10T15:26:56;25.70;99.90
14517;DHT22;7344;50.864;4.362;2022-07-10T15:29:22;25.70;99.90
14517;DHT22;7344;50.864;4.362;2022-07-10T15:31:53;25.70;99.90
14517;DHT22;7344;50.864;4.362;2022-07-10T15:34:18;25.70;99.90
14517;DHT22;7344;50.864;4.362;2022-07-10T15:36:44;26.00;99.90
14517;DHT22;7344;50.864;4.362;2022-07-10T15:39:14;26.20;99.90
14517;DHT22;7344;50.864;4.362;2022-07-10T15:41:40;26.40;99.90
14517;DHT22;7344;50.864;4.362;2022-07-10T15:44:10;26.00;99.90
14517;DHT22;7344;50.864;4.362;2022-07-10T15:46:36;25.70;99.90
14517;DHT22;7344;50.864;4.362;2022-07-10T15:49:02;25.30;1.00
14517;DHT22;7344;50.864;4.362;2022-07-10T15:51:29;25.20;1.00
14517;DHT22;7344;50.864;4.362;2022-07-10T15:53:56;24.60;1.00
14517;DHT22;7344;50.864;4.362;2022-07-10T15:56:22;24.50;82.90
14517;DHT22;7344;50.864;4.362;2022-07-10T15:58:47;24.10;99.90
14517;DHT22;7344;50.864;4.362;2022-07-10T16:01:13;24.40;99.90
14517;DHT22;7344;50.864;4.362;2022-07-10T16:03:41;24.80;1.00
14517;DHT22;7344;50.864;4.362;2022-07-10T16:06:10;24.90;1.00
14517;DHT22;7344;50.864;4.362;2022-07-10T16:08:36;24.90;1.00
14517;DHT22;7344;50.864;4.362;2022-07-10T16:11:01;24.30;1.00
14517;DHT22;7344;50.864;4.362;2022-07-10T16:13:27;24.30;1.00
14517;DHT22;7344;50.864;4.362;2022-07-10T16:15:56;24.30;1.00
14517;DHT22;7344;50.864;4.362;2022-07-10T16:18:22;24.30;1.00
14517;DHT22;7344;50.864;4.362;2022-07-10T16:20:49;24.00;99.90
14517;DHT22;7344;50.864;4.362;2022-07-10T16:23:15;24.20;99.90
14517;DHT22;7344;50.864;4.362;2022-07-10T16:25:40;24.10;99.90
14517;DHT22;7344;50.864;4.362;2022-07-10T16:28:25;23.90;10.90
14517;DHT22;7344;50.864;4.362;2022-07-10T16:30:51;23.70;99.90
14517;DHT22;7344;50.864;4.362;2022-07-10T16:33:16;23.70;99.90
14517;DHT22;7344;50.864;4.362;2022-07-10T16:35:42;23.90;99.90
14517;DHT22;7344;50.864;4.362;2022-07-10T16:38:08;23.90;99.90
14517;DHT22;7344;50.864;4.362;2022-07-10T16:40:34;24.10;99.90
14517;DHT22;7344;50.864;4.362;2022-07-10T16:43:00;24.30;99.90